sensor_id;sensor_type;location;lat;lon;timestamp;temperature;humidity
23267;DHT22;11802;53.160;8.214;2022-12-29T00:01:47;9.50;99.90
23267;DHT22;11802;53.160;8.214;2022-12-29T00:04:14;9.60;99.90
23267;DHT22;11802;53.160;8.214;2022-12-29T00:06:40;9.60;99.90
23267;DHT22;11802;53.160;8.214;2022-12-29T00:09:05;9.60;99.90
23267;DHT22;11802;53.160;8.214;2022-12-29T00:11:31;9.60;99.90
23267;DHT22;11802;53.160;8.214;2022-12-29T00:13:56;9.70;99.90
23267;DHT22;11802;53.160;8.214;2022-12-29T00:16:43;9.70;99.90
23267;DHT22;11802;53.160;8.214;2022-12-29T00:19:08;9.70;99.90
23267;DHT22;11802;53.160;8.214;2022-12-29T00:21:54;9.70;99.90
23267;DHT22;11802;53.160;8.214;2022-12-29T00:24:38;9.80;99.90
23267;DHT22;11802;53.160;8.214;2022-12-29T00:27:22;9.80;99.90
23267;DHT22;11802;53.160;8.214;2022-12-29T00:30:11;9.80;99.90
23267;DHT22;11802;53.160;8.214;2022-12-29T00:32:55;9.80;99.90
23267;DHT22;11802;53.160;8.214;2022-12-29T00:35:46;9.70;99.90
23267;DHT22;11802;53.160;8.214;2022-12-29T00:38:14;9.70;99.90
23267;DHT22;11802;53.160;8.214;2022-12-29T00:40:58;9.70;99.90
23267;DHT22;11802;53.160;8.214;2022-12-29T00:43:42;9.70;99.90
23267;DHT22;11802;53.160;8.214;2022-12-29T00:46:26;9.70;99.90
23267;DHT22;11802;53.160;8.214;2022-12-29T00:48:51;9.70;99.90
23267;DHT22;11802;53.160;8.214;2022-12-29T00:51:35;9.70;99.90
23267;DHT22;11802;53.160;8.214;2022-12-29T00:54:02;9.70;99.90
23267;DHT22;11802;53.160;8.214;2022-12-29T00:56:27;9.70;99.90
23267;DHT22;11802;53.160;8.214;2022-12-29T00:58:53;9.70;99.90
23267;DHT22;11802;53.160;8.214;2022-12-29T01:01:18;9.70;99.90
23267;DHT22;11802;53.160;8.214;2022-12-29T01:03:44;9.70;99.90
23267;DHT22;11802;53.160;8.214;2022-12-29T01:06:11;9.70;99.90
23267;DHT22;11802;53.160;8.214;2022-12-29T01:08:37;9.70;99.90
23267;DHT22;11802;53.160;8.214;2022-12-29T01:11:05;9.70;99.90
23267;DHT22;11802;53.160;8.214;2022-12-29T01:13:31;9.70;99.90
23267;DHT22;11802;53.160;8.214;2022-12-29T01:15:57;9.80;99.90
23267;DHT22;11802;53.160;8.214;2022-12-29T01:18:23;9.80;99.90
23267;DHT22;11802;53.160;8.214;2022-12-29T01:20:50;9.80;99.90
23267;DHT22;11802;53.160;8.214;2022-12-29T01:23:16;9.80;99.90
23267;DHT22;11802;53.160;8.214;2022-12-29T01:25:41;9.90;99.90
23267;DHT22;11802;53.160;8.214;2022-12-29T01:28:07;9.90;99.90
23267;DHT22;11802;53.160;8.214;2022-12-29T01:30:34;9.90;99.90
23267;DHT22;11802;53.160;8.214;2022-12-29T01:33:00;9.90;99.90
23267;DHT22;11802;53.160;8.214;2022-12-29T01:35:25;9.90;99.90
23267;DHT22;11802;53.160;8.214;2022-12-29T01:37:51;9.90;99.90
23267;DHT22;11802;53.160;8.214;2022-12-29T01:40:16;10.00;99.90
23267;DHT22;11802;53.160;8.214;2022-12-29T01:42:42;9.90;99.90
23267;DHT22;11802;53.160;8.214;2022-12-29T01:45:15;9.90;99.90
23267;DHT22;11802;53.160;8.214;2022-12-29T01:47:53;9.90;99.90
23267;DHT22;11802;53.160;8.214;2022-12-29T01:51:07;10.00;99.90
23267;DHT22;11802;53.160;8.214;2022-12-29T01:53:18;10.00;99.90
23267;DHT22;11802;53.160;8.214;2022-12-29T01:55:54;10.00;99.90
23267;DHT22;11802;53.160;8.214;2022-12-29T01:58:22;10.00;99.90
23267;DHT22;11802;53.160;8.214;2022-12-29T02:00:49;10.00;99.90
23267;DHT22;11802;53.160;8.214;2022-12-29T02:03:16;10.00;99.90
23267;DHT22;11802;53.160;8.214;2022-12-29T02:05:58;10.10;99.90
23267;DHT22;11802;53.160;8.214;2022-12-29T02:08:41;10.10;99.90
23267;DHT22;11802;53.160;8.214;2022-12-29T02:11:08;10.10;99.90
23267;DHT22;11802;53.160;8.214;2022-12-29T02:13:34;10.10;99.90
23267;DHT22;11802;53.160;8.214;2022-12-29T02:22:15;10.10;99.90
23267;DHT22;11802;53.160;8.214;2022-12-29T02:36:29;10.20;99.90
23267;DHT22;11802;53.160;8.214;2022-12-29T02:41:41;10.20;99.90
23267;DHT22;11802;53.160;8.214;2022-12-29T02:47:41;10.20;99.90
23267;DHT22;11802;53.160;8.214;2022-12-29T02:52:42;10.20;99.90
23267;DHT22;11802;53.160;8.214;2022-12-29T02:55:11;10.20;99.90
23267;DHT22;11802;53.160;8.214;2022-12-29T02:57:37;10.20;99.90
23267;DHT22;11802;53.160;8.214;2022-12-29T03:00:07;10.20;99.90
23267;DHT22;11802;53.160;8.214;2022-12-29T03:08:48;10.30;99.90
23267;DHT22;11802;53.160;8.214;2022-12-29T03:11:15;10.30;99.90
23267;DHT22;11802;53.160;8.214;2022-12-29T03:14:12;10.30;99.90
23267;DHT22;11802;53.160;8.214;2022-12-29T03:17:15;10.30;99.90
23267;DHT22;11802;53.160;8.214;2022-12-29T03:19:47;10.30;99.90
23267;DHT22;11802;53.160;8.214;2022-12-29T03:22:18;10.30;99.90
23267;DHT22;11802;53.160;8.214;2022-12-29T03:27:54;10.20;99.90
23267;DHT22;11802;53.160;8.214;2022-12-29T03:30:20;10.30;99.90
23267;DHT22;11802;53.160;8.214;2022-12-29T03:32:54;10.30;99.90
23267;DHT22;11802;53.160;8.214;2022-12-29T03:35:24;10.30;99.90
23267;DHT22;11802;53.160;8.214;2022-12-29T03:38:15;10.30;99.90
23267;DHT22;11802;53.160;8.214;2022-12-29T03:40:45;10.30;99.90
23267;DHT22;11802;53.160;8.214;2022-12-29T03:43:12;10.30;99.90
23267;DHT22;11802;53.160;8.214;2022-12-29T03:45:38;10.30;99.90
23267;DHT22;11802;53.160;8.214;2022-12-29T03:48:04;10.20;99.90
23267;DHT22;11802;53.160;8.214;2022-12-29T03:50:29;10.20;99.90
23267;DHT22;11802;53.160;8.214;2022-12-29T03:52:55;10.20;99.90
23267;DHT22;11802;53.160;8.214;2022-12-29T03:55:20;10.20;99.90
23267;DHT22;11802;53.160;8.214;2022-12-29T03:57:46;10.20;99.90
23267;DHT22;11802;53.160;8.214;2022-12-29T04:00:12;10.10;99.90
23267;DHT22;11802;53.160;8.214;2022-12-29T04:02:38;10.10;99.90
23267;DHT22;11802;53.160;8.214;2022-12-29T04:05:04;10.10;99.90
23267;DHT22;11802;53.160;8.214;2022-12-29T04:07:30;10.10;99.90
23267;DHT22;11802;53.160;8.214;2022-12-29T04:09:55;10.10;99.90
23267;DHT22;11802;53.160;8.214;2022-12-29T04:12:21;10.10;99.90
23267;DHT22;11802;53.160;8.214;2022-12-29T04:14:46;10.00;99.90
23267;DHT22;11802;53.160;8.214;2022-12-29T04:17:12;10.10;99.90
23267;DHT22;11802;53.160;8.214;2022-12-29T04:19:37;10.10;99.90
23267;DHT22;11802;53.160;8.214;2022-12-29T04:22:03;10.10;99.90
23267;DHT22;11802;53.160;8.214;2022-12-29T04:24:28;10.10;99.90
23267;DHT22;11802;53.160;8.214;2022-12-29T04:26:54;10.20;99.90
23267;DHT22;11802;53.160;8.214;2022-12-29T04:29:19;10.20;99.90
23267;DHT22;11802;53.160;8.214;2022-12-29T04:31:45;10.20;99.90
23267;DHT22;11802;53.160;8.214;2022-12-29T04:34:10;10.20;99.90
23267;DHT22;11802;53.160;8.214;2022-12-29T04:36:36;10.30;99.90
23267;DHT22;11802;53.160;8.214;2022-12-29T04:39:01;10.30;99.90
23267;DHT22;11802;53.160;8.214;2022-12-29T04:41:27;10.40;99.90
23267;DHT22;11802;53.160;8.214;2022-12-29T04:43:52;10.30;99.90
23267;DHT22;11802;53.160;8.214;2022-12-29T04:46:18;10.40;99.90
23267;DHT22;11802;53.160;8.214;2022-12-29T04:48:44;10.40;99.90
23267;DHT22;11802;53.160;8.214;2022-12-29T04:51:09;10.40;99.90
23267;DHT22;11802;53.160;8.214;2022-12-29T04:53:35;10.40;99.90
23267;DHT22;11802;53.160;8.214;2022-12-29T04:56:00;10.40;99.90
23267;DHT22;11802;53.160;8.214;2022-12-29T04:58:26;10.30;99.90
23267;DHT22;11802;53.160;8.214;2022-12-29T05:00:51;10.30;99.90
23267;DHT22;11802;53.160;8.214;2022-12-29T05:03:17;10.20;99.90
23267;DHT22;11802;53.160;8.214;2022-12-29T05:05:43;10.20;99.90
23267;DHT22;11802;53.160;8.214;2022-12-29T05:08:08;10.30;99.90
23267;DHT22;11802;53.160;8.214;2022-12-29T05:10:34;10.30;99.90
23267;DHT22;11802;53.160;8.214;2022-12-29T05:12:59;10.30;99.90
23267;DHT22;11802;53.160;8.214;2022-12-29T05:15:25;10.40;99.90
23267;DHT22;11802;53.160;8.214;2022-12-29T05:17:50;10.40;99.90
23267;DHT22;11802;53.160;8.214;2022-12-29T05:20:16;10.40;99.90
23267;DHT22;11802;53.160;8.214;2022-12-29T05:22:41;10.50;99.90
23267;DHT22;11802;53.160;8.214;2022-12-29T05:25:07;10.50;99.90
23267;DHT22;11802;53.160;8.214;2022-12-29T05:27:33;10.50;99.90
23267;DHT22;11802;53.160;8.214;2022-12-29T05:29:58;10.40;99.90
23267;DHT22;11802;53.160;8.214;2022-12-29T05:32:24;10.40;99.90
23267;DHT22;11802;53.160;8.214;2022-12-29T05:34:50;10.40;99.90
23267;DHT22;11802;53.160;8.214;2022-12-29T05:37:15;10.40;99.90
23267;DHT22;11802;53.160;8.214;2022-12-29T05:39:41;10.40;99.90
23267;DHT22;11802;53.160;8.214;2022-12-29T05:42:06;10.40;99.90
23267;DHT22;11802;53.160;8.214;2022-12-29T05:44:32;10.30;99.90
23267;DHT22;11802;53.160;8.214;2022-12-29T05:46:57;10.30;99.90
23267;DHT22;11802;53.160;8.214;2022-12-29T05:49:23;10.30;99.90
23267;DHT22;11802;53.160;8.214;2022-12-29T05:51:48;10.30;99.90
23267;DHT22;11802;53.160;8.214;2022-12-29T05:54:14;10.30;99.90
23267;DHT22;11802;53.160;8.214;2022-12-29T05:56:39;10.30;99.90
23267;DHT22;11802;53.160;8.214;2022-12-29T05:59:05;10.20;99.90
23267;DHT22;11802;53.160;8.214;2022-12-29T06:01:31;10.10;99.90
23267;DHT22;11802;53.160;8.214;2022-12-29T06:03:56;10.10;99.90
23267;DHT22;11802;53.160;8.214;2022-12-29T06:06:22;10.00;99.90
23267;DHT22;11802;53.160;8.214;2022-12-29T06:08:47;9.90;99.90
23267;DHT22;11802;53.160;8.214;2022-12-29T06:11:13;9.90;99.90
23267;DHT22;11802;53.160;8.214;2022-12-29T06:13:38;9.80;99.90
23267;DHT22;11802;53.160;8.214;2022-12-29T06:16:04;9.80;99.90
23267;DHT22;11802;53.160;8.214;2022-12-29T06:18:30;9.70;99.90
23267;DHT22;11802;53.160;8.214;2022-12-29T06:21:00;9.70;99.90
23267;DHT22;11802;53.160;8.214;2022-12-29T06:23:26;9.70;99.90
23267;DHT22;11802;53.160;8.214;2022-12-29T06:25:52;9.70;99.90
23267;DHT22;11802;53.160;8.214;2022-12-29T06:28:17;9.70;99.90
23267;DHT22;11802;53.160;8.214;2022-12-29T06:30:46;9.70;99.90
23267;DHT22;11802;53.160;8.214;2022-12-29T06:33:12;9.70;99.90
23267;DHT22;11802;53.160;8.214;2022-12-29T06:35:38;9.70;99.90
23267;DHT22;11802;53.160;8.214;2022-12-29T06:38:03;9.60;99.90
23267;DHT22;11802;53.160;8.214;2022-12-29T06:40:29;9.60;99.90
23267;DHT22;11802;53.160;8.214;2022-12-29T06:42:55;9.60;99.90
23267;DHT22;11802;53.160;8.214;2022-12-29T06:45:20;9.60;99.90
23267;DHT22;11802;53.160;8.214;2022-12-29T06:47:46;9.60;99.90
23267;DHT22;11802;53.160;8.214;2022-12-29T06:50:11;9.60;99.90
23267;DHT22;11802;53.160;8.214;2022-12-29T06:52:37;9.60;99.90
23267;DHT22;11802;53.160;8.214;2022-12-29T06:55:03;9.70;99.90
23267;DHT22;11802;53.160;8.214;2022-12-29T06:57:28;9.70;99.90
23267;DHT22;11802;53.160;8.214;2022-12-29T06:59:54;9.70;99.90
23267;DHT22;11802;53.160;8.214;2022-12-29T07:02:21;9.70;99.90
23267;DHT22;11802;53.160;8.214;2022-12-29T07:04:46;9.70;99.90
23267;DHT22;11802;53.160;8.214;2022-12-29T07:07:13;9.70;99.90
23267;DHT22;11802;53.160;8.214;2022-12-29T07:09:38;9.70;99.90
23267;DHT22;11802;53.160;8.214;2022-12-29T07:12:04;9.60;99.90
23267;DHT22;11802;53.160;8.214;2022-12-29T07:14:29;9.60;99.90
23267;DHT22;11802;53.160;8.214;2022-12-29T07:16:55;9.60;99.90
23267;DHT22;11802;53.160;8.214;2022-12-29T07:19:20;9.60;99.90
23267;DHT22;11802;53.160;8.214;2022-12-29T07:21:46;9.60;99.90
23267;DHT22;11802;53.160;8.214;2022-12-29T07:24:11;9.60;99.90
23267;DHT22;11802;53.160;8.214;2022-12-29T07:26:37;9.60;99.90
23267;DHT22;11802;53.160;8.214;2022-12-29T07:29:04;9.60;99.90
23267;DHT22;11802;53.160;8.214;2022-12-29T07:31:29;9.60;99.90
23267;DHT22;11802;53.160;8.214;2022-12-29T07:33:55;9.70;99.90
23267;DHT22;11802;53.160;8.214;2022-12-29T07:36:20;9.70;99.90
23267;DHT22;11802;53.160;8.214;2022-12-29T07:38:46;9.70;99.90
23267;DHT22;11802;53.160;8.214;2022-12-29T07:41:12;9.90;99.90
23267;DHT22;11802;53.160;8.214;2022-12-29T07:43:37;9.90;99.90
23267;DHT22;11802;53.160;8.214;2022-12-29T07:46:03;10.00;99.90
23267;DHT22;11802;53.160;8.214;2022-12-29T07:48:28;10.00;99.90
23267;DHT22;11802;53.160;8.214;2022-12-29T07:50:54;10.00;99.90
23267;DHT22;11802;53.160;8.214;2022-12-29T07:53:19;10.10;99.90
23267;DHT22;11802;53.160;8.214;2022-12-29T07:55:45;10.10;99.90
23267;DHT22;11802;53.160;8.214;2022-12-29T07:58:10;10.00;99.90
23267;DHT22;11802;53.160;8.214;2022-12-29T08:00:37;10.10;99.90
23267;DHT22;11802;53.160;8.214;2022-12-29T08:03:03;10.00;99.90
23267;DHT22;11802;53.160;8.214;2022-12-29T08:05:31;10.10;99.90
23267;DHT22;11802;53.160;8.214;2022-12-29T08:07:56;10.00;99.90
23267;DHT22;11802;53.160;8.214;2022-12-29T08:10:22;10.00;99.90
23267;DHT22;11802;53.160;8.214;2022-12-29T08:12:48;10.00;99.90
23267;DHT22;11802;53.160;8.214;2022-12-29T08:15:13;10.00;99.90
23267;DHT22;11802;53.160;8.214;2022-12-29T08:17:39;10.10;99.90
23267;DHT22;11802;53.160;8.214;2022-12-29T08:20:05;10.10;99.90
23267;DHT22;11802;53.160;8.214;2022-12-29T08:22:31;10.10;99.90
23267;DHT22;11802;53.160;8.214;2022-12-29T08:24:56;10.20;99.90
23267;DHT22;11802;53.160;8.214;2022-12-29T08:27:22;10.20;99.90
23267;DHT22;11802;53.160;8.214;2022-12-29T08:29:48;10.20;99.90
23267;DHT22;11802;53.160;8.214;2022-12-29T08:32:13;10.20;99.90
23267;DHT22;11802;53.160;8.214;2022-12-29T08:34:39;10.30;99.90
23267;DHT22;11802;53.160;8.214;2022-12-29T08:37:05;10.30;99.90
23267;DHT22;11802;53.160;8.214;2022-12-29T08:39:30;10.20;99.90
23267;DHT22;11802;53.160;8.214;2022-12-29T08:41:56;10.30;99.90
23267;DHT22;11802;53.160;8.214;2022-12-29T08:44:21;10.20;99.90
23267;DHT22;11802;53.160;8.214;2022-12-29T08:46:47;10.10;99.90
23267;DHT22;11802;53.160;8.214;2022-12-29T08:49:16;10.10;99.90
23267;DHT22;11802;53.160;8.214;2022-12-29T08:51:41;10.10;99.90
23267;DHT22;11802;53.160;8.214;2022-12-29T08:54:07;10.30;99.90
23267;DHT22;11802;53.160;8.214;2022-12-29T08:56:32;10.30;99.90
23267;DHT22;11802;53.160;8.214;2022-12-29T08:58:58;10.30;99.90
23267;DHT22;11802;53.160;8.214;2022-12-29T09:01:23;10.30;99.90
23267;DHT22;11802;53.160;8.214;2022-12-29T09:03:49;10.30;99.90
23267;DHT22;11802;53.160;8.214;2022-12-29T09:06:16;10.40;99.90
23267;DHT22;11802;53.160;8.214;2022-12-29T09:08:43;10.50;99.90
23267;DHT22;11802;53.160;8.214;2022-12-29T09:11:15;10.50;99.90
23267;DHT22;11802;53.160;8.214;2022-12-29T09:13:41;10.60;99.90
23267;DHT22;11802;53.160;8.214;2022-12-29T09:16:07;10.70;99.90
23267;DHT22;11802;53.160;8.214;2022-12-29T09:18:32;10.70;99.90
23267;DHT22;11802;53.160;8.214;2022-12-29T09:21:00;10.60;99.90
23267;DHT22;11802;53.160;8.214;2022-12-29T09:23:26;10.60;99.90
23267;DHT22;11802;53.160;8.214;2022-12-29T09:25:52;10.50;99.90
23267;DHT22;11802;53.160;8.214;2022-12-29T09:28:18;10.60;99.90
23267;DHT22;11802;53.160;8.214;2022-12-29T09:30:44;10.50;99.90
23267;DHT22;11802;53.160;8.214;2022-12-29T09:33:10;10.50;99.90
23267;DHT22;11802;53.160;8.214;2022-12-29T09:35:35;10.60;99.90
23267;DHT22;11802;53.160;8.214;2022-12-29T09:38:01;10.60;99.90
23267;DHT22;11802;53.160;8.214;2022-12-29T09:40:32;10.60;99.90
23267;DHT22;11802;53.160;8.214;2022-12-29T09:46:23;10.70;99.90
23267;DHT22;11802;53.160;8.214;2022-12-29T09:49:06;10.60;99.90
23267;DHT22;11802;53.160;8.214;2022-12-29T09:51:36;10.70;99.90
23267;DHT22;11802;53.160;8.214;2022-12-29T09:57:34;10.50;99.90
23267;DHT22;11802;53.160;8.214;2022-12-29T10:00:10;10.40;99.90
23267;DHT22;11802;53.160;8.214;2022-12-29T10:02:40;10.30;99.90
23267;DHT22;11802;53.160;8.214;2022-12-29T10:11:47;10.30;99.90
23267;DHT22;11802;53.160;8.214;2022-12-29T10:19:43;10.60;99.90
23267;DHT22;11802;53.160;8.214;2022-12-29T10:25:12;10.60;99.90
23267;DHT22;11802;53.160;8.214;2022-12-29T10:27:40;10.60;99.90
23267;DHT22;11802;53.160;8.214;2022-12-29T10:30:12;10.60;99.90
23267;DHT22;11802;53.160;8.214;2022-12-29T10:32:45;10.70;99.90
23267;DHT22;11802;53.160;8.214;2022-12-29T10:35:18;10.60;99.90
23267;DHT22;11802;53.160;8.214;2022-12-29T10:38:25;10.60;99.90
23267;DHT22;11802;53.160;8.214;2022-12-29T10:40:57;10.60;99.90
23267;DHT22;11802;53.160;8.214;2022-12-29T10:43:44;10.60;99.90
23267;DHT22;11802;53.160;8.214;2022-12-29T10:46:13;10.70;99.90
23267;DHT22;11802;53.160;8.214;2022-12-29T10:48:40;10.70;99.90
23267;DHT22;11802;53.160;8.214;2022-12-29T10:51:11;10.60;99.90
23267;DHT22;11802;53.160;8.214;2022-12-29T10:53:51;11.20;99.90
23267;DHT22;11802;53.160;8.214;2022-12-29T10:56:34;10.60;99.90
23267;DHT22;11802;53.160;8.214;2022-12-29T10:59:20;10.60;99.90
23267;DHT22;11802;53.160;8.214;2022-12-29T11:02:12;10.50;99.90
23267;DHT22;11802;53.160;8.214;2022-12-29T11:04:57;10.50;99.90
23267;DHT22;11802;53.160;8.214;2022-12-29T11:07:25;10.40;99.90
23267;DHT22;11802;53.160;8.214;2022-12-29T11:09:52;10.30;99.90
23267;DHT22;11802;53.160;8.214;2022-12-29T11:12:23;10.30;99.90
23267;DHT22;11802;53.160;8.214;2022-12-29T11:15:14;10.30;99.90
23267;DHT22;11802;53.160;8.214;2022-12-29T11:18:19;10.30;99.90
23267;DHT22;11802;53.160;8.214;2022-12-29T11:20:46;10.30;99.90
23267;DHT22;11802;53.160;8.214;2022-12-29T11:23:38;10.30;99.90
23267;DHT22;11802;53.160;8.214;2022-12-29T11:26:14;10.30;99.90
23267;DHT22;11802;53.160;8.214;2022-12-29T11:28:43;10.30;99.90
23267;DHT22;11802;53.160;8.214;2022-12-29T11:31:10;10.40;99.90
23267;DHT22;11802;53.160;8.214;2022-12-29T11:33:37;10.40;99.90
23267;DHT22;11802;53.160;8.214;2022-12-29T11:36:12;10.50;99.90
23267;DHT22;11802;53.160;8.214;2022-12-29T11:38:41;10.60;99.90
23267;DHT22;11802;53.160;8.214;2022-12-29T11:41:11;10.60;99.90
23267;DHT22;11802;53.160;8.214;2022-12-29T11:43:41;10.60;99.90
23267;DHT22;11802;53.160;8.214;2022-12-29T11:46:32;10.60;99.90
23267;DHT22;11802;53.160;8.214;2022-12-29T11:48:59;10.70;99.90
23267;DHT22;11802;53.160;8.214;2022-12-29T11:51:29;10.70;99.90
23267;DHT22;11802;53.160;8.214;2022-12-29T11:53:58;10.70;99.90
23267;DHT22;11802;53.160;8.214;2022-12-29T11:56:36;10.60;99.90
23267;DHT22;11802;53.160;8.214;2022-12-29T11:59:34;10.60;99.90
23267;DHT22;11802;53.160;8.214;2022-12-29T12:02:13;10.60;99.90
23267;DHT22;11802;53.160;8.214;2022-12-29T12:04:43;10.40;99.90
23267;DHT22;11802;53.160;8.214;2022-12-29T12:07:28;10.40;99.90
23267;DHT22;11802;53.160;8.214;2022-12-29T12:09:59;10.30;99.90
23267;DHT22;11802;53.160;8.214;2022-12-29T12:12:48;10.40;99.90
23267;DHT22;11802;53.160;8.214;2022-12-29T12:15:22;10.40;99.90
23267;DHT22;11802;53.160;8.214;2022-12-29T12:18:11;10.40;99.90
23267;DHT22;11802;53.160;8.214;2022-12-29T12:20:45;10.30;99.90
23267;DHT22;11802;53.160;8.214;2022-12-29T12:23:29;10.40;99.90
23267;DHT22;11802;53.160;8.214;2022-12-29T12:26:13;10.40;99.90
23267;DHT22;11802;53.160;8.214;2022-12-29T12:28:56;10.50;99.90
23267;DHT22;11802;53.160;8.214;2022-12-29T12:34:02;10.60;99.90
23267;DHT22;11802;53.160;8.214;2022-12-29T12:36:54;10.60;99.90
23267;DHT22;11802;53.160;8.214;2022-12-29T12:39:27;10.60;99.90
23267;DHT22;11802;53.160;8.214;2022-12-29T12:51:06;10.50;99.90
23267;DHT22;11802;53.160;8.214;2022-12-29T12:53:55;10.60;99.90
23267;DHT22;11802;53.160;8.214;2022-12-29T12:56:40;10.70;99.90
23267;DHT22;11802;53.160;8.214;2022-12-29T12:59:14;10.80;99.90
23267;DHT22;11802;53.160;8.214;2022-12-29T13:01:57;10.70;99.90
23267;DHT22;11802;53.160;8.214;2022-12-29T13:07:20;10.70;99.90
23267;DHT22;11802;53.160;8.214;2022-12-29T13:10:15;10.70;99.90
23267;DHT22;11802;53.160;8.214;2022-12-29T13:12:54;10.60;99.90
23267;DHT22;11802;53.160;8.214;2022-12-29T13:21:11;10.50;99.90
23267;DHT22;11802;53.160;8.214;2022-12-29T13:24:02;10.50;99.90
23267;DHT22;11802;53.160;8.214;2022-12-29T13:29:34;10.40;99.90
23267;DHT22;11802;53.160;8.214;2022-12-29T13:37:45;10.30;99.90
23267;DHT22;11802;53.160;8.214;2022-12-29T13:40:18;10.40;99.90
23267;DHT22;11802;53.160;8.214;2022-12-29T13:42:45;10.30;99.90
23267;DHT22;11802;53.160;8.214;2022-12-29T13:45:16;10.20;99.90
23267;DHT22;11802;53.160;8.214;2022-12-29T13:47:58;10.20;99.90
23267;DHT22;11802;53.160;8.214;2022-12-29T13:50:27;10.10;99.90
23267;DHT22;11802;53.160;8.214;2022-12-29T13:53:35;10.10;99.90
23267;DHT22;11802;53.160;8.214;2022-12-29T13:56:11;10.00;99.90
23267;DHT22;11802;53.160;8.214;2022-12-29T14:03:55;9.80;99.90
23267;DHT22;11802;53.160;8.214;2022-12-29T14:06:29;9.80;99.90
23267;DHT22;11802;53.160;8.214;2022-12-29T14:08:59;9.80;99.90
23267;DHT22;11802;53.160;8.214;2022-12-29T14:11:31;9.80;99.90
23267;DHT22;11802;53.160;8.214;2022-12-29T14:13:57;9.70;99.90
23267;DHT22;11802;53.160;8.214;2022-12-29T14:16:30;9.70;99.90
23267;DHT22;11802;53.160;8.214;2022-12-29T14:19:14;9.70;99.90
23267;DHT22;11802;53.160;8.214;2022-12-29T14:21:40;9.70;99.90
23267;DHT22;11802;53.160;8.214;2022-12-29T14:24:26;9.70;99.90
23267;DHT22;11802;53.160;8.214;2022-12-29T14:26:52;9.70;99.90
23267;DHT22;11802;53.160;8.214;2022-12-29T14:31:49;9.60;99.90
23267;DHT22;11802;53.160;8.214;2022-12-29T14:39:32;9.50;99.90
23267;DHT22;11802;53.160;8.214;2022-12-29T14:44:56;9.40;99.90
23267;DHT22;11802;53.160;8.214;2022-12-29T14:50:06;9.40;99.90
23267;DHT22;11802;53.160;8.214;2022-12-29T14:52:32;9.40;99.90
23267;DHT22;11802;53.160;8.214;2022-12-29T14:57:51;9.40;99.90
23267;DHT22;11802;53.160;8.214;2022-12-29T15:00:30;9.30;99.90
23267;DHT22;11802;53.160;8.214;2022-12-29T15:05:42;9.20;99.90
23267;DHT22;11802;53.160;8.214;2022-12-29T15:08:10;9.20;99.90
23267;DHT22;11802;53.160;8.214;2022-12-29T15:10:41;9.10;99.90
23267;DHT22;11802;53.160;8.214;2022-12-29T15:13:16;9.10;99.90
23267;DHT22;11802;53.160;8.214;2022-12-29T15:15:42;9.10;99.90
23267;DHT22;11802;53.160;8.214;2022-12-29T15:18:34;9.00;99.90
23267;DHT22;11802;53.160;8.214;2022-12-29T15:21:04;8.80;99.90
23267;DHT22;11802;53.160;8.214;2022-12-29T15:23:32;8.80;99.90
23267;DHT22;11802;53.160;8.214;2022-12-29T15:26:08;8.70;99.90
23267;DHT22;11802;53.160;8.214;2022-12-29T15:28:43;8.70;99.90
23267;DHT22;11802;53.160;8.214;2022-12-29T15:31:19;8.70;99.90
23267;DHT22;11802;53.160;8.214;2022-12-29T15:33:53;8.70;99.90
23267;DHT22;11802;53.160;8.214;2022-12-29T15:38:45;8.60;99.90
23267;DHT22;11802;53.160;8.214;2022-12-29T15:44:04;8.50;99.90
23267;DHT22;11802;53.160;8.214;2022-12-29T15:46:31;8.60;99.90
23267;DHT22;11802;53.160;8.214;2022-12-29T15:48:57;8.60;99.90
23267;DHT22;11802;53.160;8.214;2022-12-29T15:51:30;8.60;99.90
23267;DHT22;11802;53.160;8.214;2022-12-29T15:53:57;8.60;99.90
23267;DHT22;11802;53.160;8.214;2022-12-29T15:56:23;8.50;99.90
23267;DHT22;11802;53.160;8.214;2022-12-29T15:58:51;8.50;99.90
23267;DHT22;11802;53.160;8.214;2022-12-29T16:03:44;8.40;99.90
23267;DHT22;11802;53.160;8.214;2022-12-29T16:11:35;8.40;99.90
23267;DHT22;11802;53.160;8.214;2022-12-29T16:14:07;8.40;99.90
23267;DHT22;11802;53.160;8.214;2022-12-29T16:16:38;8.40;99.90
23267;DHT22;11802;53.160;8.214;2022-12-29T16:19:28;8.30;99.90
23267;DHT22;11802;53.160;8.214;2022-12-29T16:21:55;8.30;99.90
23267;DHT22;11802;53.160;8.214;2022-12-29T16:24:26;8.30;99.90
23267;DHT22;11802;53.160;8.214;2022-12-29T16:27:02;8.20;99.90
23267;DHT22;11802;53.160;8.214;2022-12-29T16:29:31;8.20;99.90
23267;DHT22;11802;53.160;8.214;2022-12-29T16:31:58;8.20;99.90
23267;DHT22;11802;53.160;8.214;2022-12-29T16:34:32;8.20;99.90
23267;DHT22;11802;53.160;8.214;2022-12-29T16:37:01;8.10;99.90
23267;DHT22;11802;53.160;8.214;2022-12-29T16:39:34;8.10;99.90
23267;DHT22;11802;53.160;8.214;2022-12-29T16:41:59;8.00;99.90
23267;DHT22;11802;53.160;8.214;2022-12-29T16:44:26;8.10;99.90
23267;DHT22;11802;53.160;8.214;2022-12-29T16:46:57;8.10;99.90
23267;DHT22;11802;53.160;8.214;2022-12-29T16:49:23;8.20;99.90
23267;DHT22;11802;53.160;8.214;2022-12-29T16:51:49;8.20;99.90
23267;DHT22;11802;53.160;8.214;2022-12-29T16:54:44;8.30;99.90
23267;DHT22;11802;53.160;8.214;2022-12-29T16:57:13;8.30;99.90
23267;DHT22;11802;53.160;8.214;2022-12-29T16:59:40;8.40;99.90
23267;DHT22;11802;53.160;8.214;2022-12-29T17:02:15;8.40;99.90
23267;DHT22;11802;53.160;8.214;2022-12-29T17:04:41;8.40;99.90
23267;DHT22;11802;53.160;8.214;2022-12-29T17:07:16;8.40;99.90
23267;DHT22;11802;53.160;8.214;2022-12-29T17:09:42;8.50;99.90
23267;DHT22;11802;53.160;8.214;2022-12-29T17:12:11;8.50;99.90
23267;DHT22;11802;53.160;8.214;2022-12-29T17:14:46;8.50;99.90
23267;DHT22;11802;53.160;8.214;2022-12-29T17:17:19;8.50;99.90
23267;DHT22;11802;53.160;8.214;2022-12-29T17:19:49;8.50;99.90
23267;DHT22;11802;53.160;8.214;2022-12-29T17:22:19;8.50;99.90
23267;DHT22;11802;53.160;8.214;2022-12-29T17:24:45;8.50;99.90
23267;DHT22;11802;53.160;8.214;2022-12-29T17:27:21;8.50;99.90
23267;DHT22;11802;53.160;8.214;2022-12-29T17:29:48;8.60;99.90
23267;DHT22;11802;53.160;8.214;2022-12-29T17:32:14;8.60;99.90
23267;DHT22;11802;53.160;8.214;2022-12-29T17:34:40;8.70;99.90
23267;DHT22;11802;53.160;8.214;2022-12-29T17:37:30;8.70;99.90
23267;DHT22;11802;53.160;8.214;2022-12-29T17:39:56;8.70;99.90
23267;DHT22;11802;53.160;8.214;2022-12-29T17:42:22;8.70;99.90
23267;DHT22;11802;53.160;8.214;2022-12-29T17:44:47;8.70;99.90
23267;DHT22;11802;53.160;8.214;2022-12-29T17:47:14;8.80;99.90
23267;DHT22;11802;53.160;8.214;2022-12-29T17:49:40;8.80;99.90
23267;DHT22;11802;53.160;8.214;2022-12-29T17:52:13;8.80;99.90
23267;DHT22;11802;53.160;8.214;2022-12-29T17:54:51;8.90;99.90
23267;DHT22;11802;53.160;8.214;2022-12-29T17:57:18;8.90;99.90
23267;DHT22;11802;53.160;8.214;2022-12-29T17:59:44;9.00;99.90
23267;DHT22;11802;53.160;8.214;2022-12-29T18:02:29;9.00;99.90